sensor_id;sensor_type;location;lat;lon;timestamp;P1;durP1;ratioP1;P2;durP2;ratioP2
70122;SDS011;57489;37.404;24.920;2022-12-10T00:02:20;17.30;;;8.50;;
70122;SDS011;57489;37.404;24.920;2022-12-10T00:07:20;16.43;;;8.93;;
70122;SDS011;57489;37.404;24.920;2022-12-10T00:12:20;14.07;;;8.43;;
70122;SDS011;57489;37.404;24.920;2022-12-10T00:17:21;16.50;;;8.10;;
70122;SDS011;57489;37.404;24.920;2022-12-10T00:22:21;18.87;;;9.57;;
70122;SDS011;57489;37.404;24.920;2022-12-10T00:27:22;17.23;;;9.77;;
70122;SDS011;57489;37.404;24.920;2022-12-10T00:32:22;16.13;;;8.90;;
70122;SDS011;57489;37.404;24.920;2022-12-10T00:37:23;13.60;;;7.68;;
70122;SDS011;57489;37.404;24.920;2022-12-10T00:42:23;15.77;;;8.10;;
70122;SDS011;57489;37.404;24.920;2022-12-10T00:47:23;16.23;;;7.90;;
70122;SDS011;57489;37.404;24.920;2022-12-10T00:52:24;15.10;;;8.13;;
70122;SDS011;57489;37.404;24.920;2022-12-10T00:57:24;15.63;;;7.27;;
70122;SDS011;57489;37.404;24.920;2022-12-10T01:02:25;16.17;;;8.27;;
70122;SDS011;57489;37.404;24.920;2022-12-10T01:07:25;18.23;;;7.50;;
70122;SDS011;57489;37.404;24.920;2022-12-10T01:12:26;16.80;;;7.23;;
70122;SDS011;57489;37.404;24.920;2022-12-10T01:17:26;17.37;;;8.10;;
70122;SDS011;57489;37.404;24.920;2022-12-10T01:22:27;17.40;;;10.37;;
70122;SDS011;57489;37.404;24.920;2022-12-10T01:27:27;16.83;;;7.70;;
70122;SDS011;57489;37.404;24.920;2022-12-10T01:32:28;18.10;;;8.30;;
70122;SDS011;57489;37.404;24.920;2022-12-10T01:37:28;15.07;;;8.10;;
70122;SDS011;57489;37.404;24.920;2022-12-10T01:42:29;15.43;;;7.67;;
70122;SDS011;57489;37.404;24.920;2022-12-10T01:47:29;19.70;;;7.80;;
70122;SDS011;57489;37.404;24.920;2022-12-10T01:52:30;16.53;;;7.97;;
70122;SDS011;57489;37.404;24.920;2022-12-10T01:57:31;16.07;;;7.70;;
70122;SDS011;57489;37.404;24.920;2022-12-10T02:18:55;15.23;;;7.50;;
70122;SDS011;57489;37.404;24.920;2022-12-10T02:24:01;14.43;;;6.83;;
70122;SDS011;57489;37.404;24.920;2022-12-10T02:29:12;12.23;;;6.68;;
70122;SDS011;57489;37.404;24.920;2022-12-10T02:34:18;14.40;;;6.28;;
70122;SDS011;57489;37.404;24.920;2022-12-10T02:39:22;16.63;;;7.37;;
70122;SDS011;57489;37.404;24.920;2022-12-10T02:44:27;14.73;;;6.55;;
70122;SDS011;57489;37.404;24.920;2022-12-10T02:49:29;16.90;;;7.75;;
70122;SDS011;57489;37.404;24.920;2022-12-10T02:59:42;13.15;;;6.75;;
70122;SDS011;57489;37.404;24.920;2022-12-10T03:09:53;18.30;;;6.30;;
70122;SDS011;57489;37.404;24.920;2022-12-10T03:15:03;14.50;;;7.00;;
70122;SDS011;57489;37.404;24.920;2022-12-10T03:20:07;15.43;;;6.30;;
70122;SDS011;57489;37.404;24.920;2022-12-10T03:25:12;14.07;;;7.22;;
70122;SDS011;57489;37.404;24.920;2022-12-10T03:30:15;11.38;;;6.65;;
70122;SDS011;57489;37.404;24.920;2022-12-10T03:35:16;13.07;;;6.33;;
70122;SDS011;57489;37.404;24.920;2022-12-10T03:40:20;14.07;;;6.00;;
70122;SDS011;57489;37.404;24.920;2022-12-10T03:45:23;18.95;;;6.97;;
70122;SDS011;57489;37.404;24.920;2022-12-10T03:50:24;17.10;;;6.40;;
70122;SDS011;57489;37.404;24.920;2022-12-10T03:55:24;11.93;;;6.63;;
70122;SDS011;57489;37.404;24.920;2022-12-10T04:00:25;16.13;;;6.40;;
70122;SDS011;57489;37.404;24.920;2022-12-10T04:05:25;15.53;;;6.57;;
70122;SDS011;57489;37.404;24.920;2022-12-10T04:10:26;12.00;;;6.30;;
70122;SDS011;57489;37.404;24.920;2022-12-10T04:15:26;17.37;;;6.27;;
70122;SDS011;57489;37.404;24.920;2022-12-10T04:20:26;15.20;;;6.17;;
70122;SDS011;57489;37.404;24.920;2022-12-10T04:25:27;16.03;;;6.60;;
70122;SDS011;57489;37.404;24.920;2022-12-10T04:30:27;16.80;;;6.93;;
70122;SDS011;57489;37.404;24.920;2022-12-10T04:35:28;14.40;;;6.20;;
70122;SDS011;57489;37.404;24.920;2022-12-10T04:40:28;14.40;;;6.23;;
70122;SDS011;57489;37.404;24.920;2022-12-10T04:45:28;12.30;;;6.23;;
70122;SDS011;57489;37.404;24.920;2022-12-10T04:50:29;14.00;;;6.47;;
70122;SDS011;57489;37.404;24.920;2022-12-10T04:55:29;11.60;;;5.80;;
70122;SDS011;57489;37.404;24.920;2022-12-10T05:00:30;11.63;;;6.33;;
70122;SDS011;57489;37.404;24.920;2022-12-10T05:05:30;12.00;;;5.87;;
70122;SDS011;57489;37.404;24.920;2022-12-10T05:10:34;15.10;;;6.30;;
70122;SDS011;57489;37.404;24.920;2022-12-10T05:15:37;13.02;;;6.15;;
70122;SDS011;57489;37.404;24.920;2022-12-10T05:20:38;12.52;;;5.95;;
70122;SDS011;57489;37.404;24.920;2022-12-10T05:25:38;14.23;;;6.37;;
70122;SDS011;57489;37.404;24.920;2022-12-10T05:30:39;11.23;;;6.53;;
70122;SDS011;57489;37.404;24.920;2022-12-10T05:35:39;17.13;;;7.60;;
70122;SDS011;57489;37.404;24.920;2022-12-10T05:40:40;14.55;;;6.75;;
70122;SDS011;57489;37.404;24.920;2022-12-10T05:45:41;11.57;;;6.70;;
70122;SDS011;57489;37.404;24.920;2022-12-10T05:50:41;13.57;;;6.97;;
70122;SDS011;57489;37.404;24.920;2022-12-10T05:55:42;13.60;;;6.57;;
70122;SDS011;57489;37.404;24.920;2022-12-10T06:00:42;15.20;;;7.17;;
70122;SDS011;57489;37.404;24.920;2022-12-10T06:05:43;12.33;;;6.77;;
70122;SDS011;57489;37.404;24.920;2022-12-10T06:10:43;11.33;;;6.40;;
70122;SDS011;57489;37.404;24.920;2022-12-10T06:15:44;15.23;;;6.68;;
70122;SDS011;57489;37.404;24.920;2022-12-10T06:20:44;15.10;;;6.90;;
70122;SDS011;57489;37.404;24.920;2022-12-10T06:25:45;12.70;;;6.93;;
70122;SDS011;57489;37.404;24.920;2022-12-10T06:30:45;14.30;;;6.33;;
70122;SDS011;57489;37.404;24.920;2022-12-10T06:35:45;16.37;;;6.93;;
70122;SDS011;57489;37.404;24.920;2022-12-10T06:40:46;13.80;;;7.50;;
70122;SDS011;57489;37.404;24.920;2022-12-10T06:45:47;16.10;;;7.82;;
70122;SDS011;57489;37.404;24.920;2022-12-10T06:50:47;13.03;;;7.00;;
70122;SDS011;57489;37.404;24.920;2022-12-10T06:55:47;17.27;;;7.60;;
70122;SDS011;57489;37.404;24.920;2022-12-10T07:00:48;18.53;;;7.70;;
70122;SDS011;57489;37.404;24.920;2022-12-10T07:05:48;15.03;;;7.47;;
70122;SDS011;57489;37.404;24.920;2022-12-10T07:10:49;14.13;;;7.30;;
70122;SDS011;57489;37.404;24.920;2022-12-10T07:15:49;15.87;;;7.37;;
70122;SDS011;57489;37.404;24.920;2022-12-10T07:20:50;13.00;;;7.13;;
70122;SDS011;57489;37.404;24.920;2022-12-10T07:25:50;14.03;;;6.93;;
70122;SDS011;57489;37.404;24.920;2022-12-10T07:30:59;13.15;;;6.65;;
70122;SDS011;57489;37.404;24.920;2022-12-10T07:36:08;14.57;;;7.22;;
70122;SDS011;57489;37.404;24.920;2022-12-10T07:41:11;14.23;;;6.73;;
70122;SDS011;57489;37.404;24.920;2022-12-10T07:46:22;16.90;;;7.27;;
70122;SDS011;57489;37.404;24.920;2022-12-10T07:51:27;12.98;;;6.63;;
70122;SDS011;57489;37.404;24.920;2022-12-10T07:56:28;13.33;;;6.87;;
70122;SDS011;57489;37.404;24.920;2022-12-10T08:01:29;15.73;;;6.63;;
70122;SDS011;57489;37.404;24.920;2022-12-10T08:06:29;12.60;;;6.57;;
70122;SDS011;57489;37.404;24.920;2022-12-10T08:11:30;15.63;;;7.20;;
70122;SDS011;57489;37.404;24.920;2022-12-10T08:16:30;17.80;;;8.53;;
70122;SDS011;57489;37.404;24.920;2022-12-10T08:21:32;18.90;;;7.90;;
70122;SDS011;57489;37.404;24.920;2022-12-10T08:26:33;16.17;;;7.18;;
70122;SDS011;57489;37.404;24.920;2022-12-10T08:31:33;17.67;;;7.07;;
70122;SDS011;57489;37.404;24.920;2022-12-10T08:36:34;16.70;;;7.20;;
70122;SDS011;57489;37.404;24.920;2022-12-10T08:41:43;20.67;;;8.25;;
70122;SDS011;57489;37.404;24.920;2022-12-10T08:46:44;17.03;;;8.03;;
70122;SDS011;57489;37.404;24.920;2022-12-10T08:51:44;16.83;;;7.50;;
70122;SDS011;57489;37.404;24.920;2022-12-10T08:56:45;19.00;;;7.37;;
70122;SDS011;57489;37.404;24.920;2022-12-10T09:01:45;27.03;;;10.23;;
70122;SDS011;57489;37.404;24.920;2022-12-10T09:06:46;28.93;;;10.50;;
70122;SDS011;57489;37.404;24.920;2022-12-10T09:11:46;29.43;;;10.43;;
70122;SDS011;57489;37.404;24.920;2022-12-10T09:16:47;40.17;;;12.90;;
70122;SDS011;57489;37.404;24.920;2022-12-10T09:21:47;45.70;;;14.20;;
70122;SDS011;57489;37.404;24.920;2022-12-10T09:26:48;36.70;;;12.63;;
70122;SDS011;57489;37.404;24.920;2022-12-10T09:31:51;38.37;;;12.73;;
70122;SDS011;57489;37.404;24.920;2022-12-10T09:36:52;37.53;;;11.90;;
70122;SDS011;57489;37.404;24.920;2022-12-10T09:41:56;33.50;;;11.63;;
70122;SDS011;57489;37.404;24.920;2022-12-10T09:47:03;34.45;;;11.07;;
70122;SDS011;57489;37.404;24.920;2022-12-10T09:52:11;30.07;;;11.73;;
70122;SDS011;57489;37.404;24.920;2022-12-10T09:57:25;30.93;;;11.87;;
70122;SDS011;57489;37.404;24.920;2022-12-10T10:02:38;30.55;;;11.40;;
70122;SDS011;57489;37.404;24.920;2022-12-10T10:07:46;31.43;;;10.97;;
70122;SDS011;57489;37.404;24.920;2022-12-10T10:23:35;24.58;;;10.65;;
70122;SDS011;57489;37.404;24.920;2022-12-10T10:28:36;22.80;;;9.70;;
70122;SDS011;57489;37.404;24.920;2022-12-10T10:33:50;20.00;;;10.15;;
70122;SDS011;57489;37.404;24.920;2022-12-10T10:38:55;23.40;;;9.77;;
70122;SDS011;57489;37.404;24.920;2022-12-10T10:43:59;18.13;;;8.98;;
70122;SDS011;57489;37.404;24.920;2022-12-10T10:49:14;20.35;;;9.35;;
70122;SDS011;57489;37.404;24.920;2022-12-10T10:54:43;17.10;;;8.60;;
70122;SDS011;57489;37.404;24.920;2022-12-10T10:59:43;24.30;;;8.15;;
70122;SDS011;57489;37.404;24.920;2022-12-10T11:04:47;17.17;;;8.23;;
70122;SDS011;57489;37.404;24.920;2022-12-10T11:09:49;22.60;;;8.88;;
70122;SDS011;57489;37.404;24.920;2022-12-10T11:14:52;16.53;;;7.93;;
70122;SDS011;57489;37.404;24.920;2022-12-10T11:19:57;18.97;;;8.77;;
70122;SDS011;57489;37.404;24.920;2022-12-10T11:24:59;18.97;;;8.70;;
70122;SDS011;57489;37.404;24.920;2022-12-10T11:35:17;17.83;;;8.57;;
70122;SDS011;57489;37.404;24.920;2022-12-10T11:40:30;22.50;;;7.87;;
70122;SDS011;57489;37.404;24.920;2022-12-10T11:50:53;16.47;;;6.57;;
70122;SDS011;57489;37.404;24.920;2022-12-10T12:07:08;14.95;;;6.15;;
70122;SDS011;57489;37.404;24.920;2022-12-10T12:17:51;14.37;;;6.47;;
70122;SDS011;57489;37.404;24.920;2022-12-10T12:23:00;15.00;;;6.27;;
70122;SDS011;57489;37.404;24.920;2022-12-10T12:28:39;18.30;;;5.68;;
70122;SDS011;57489;37.404;24.920;2022-12-10T12:38:53;16.93;;;5.77;;
70122;SDS011;57489;37.404;24.920;2022-12-10T12:44:22;16.88;;;6.28;;
70122;SDS011;57489;37.404;24.920;2022-12-10T12:49:24;11.30;;;5.25;;
70122;SDS011;57489;37.404;24.920;2022-12-10T12:54:29;15.10;;;6.83;;
70122;SDS011;57489;37.404;24.920;2022-12-10T13:04:48;19.50;;;6.67;;
70122;SDS011;57489;37.404;24.920;2022-12-10T13:09:51;19.13;;;6.47;;
70122;SDS011;57489;37.404;24.920;2022-12-10T13:26:23;16.73;;;6.25;;
70122;SDS011;57489;37.404;24.920;2022-12-10T13:41:33;14.13;;;7.00;;
70122;SDS011;57489;37.404;24.920;2022-12-10T13:46:53;16.50;;;6.50;;
70122;SDS011;57489;37.404;24.920;2022-12-10T13:52:06;12.50;;;6.55;;
70122;SDS011;57489;37.404;24.920;2022-12-10T13:57:20;16.93;;;6.50;;
70122;SDS011;57489;37.404;24.920;2022-12-10T14:02:50;13.68;;;6.85;;
70122;SDS011;57489;37.404;24.920;2022-12-10T14:08:15;12.35;;;6.00;;
70122;SDS011;57489;37.404;24.920;2022-12-10T14:13:18;14.63;;;6.13;;
70122;SDS011;57489;37.404;24.920;2022-12-10T14:18:23;12.65;;;6.25;;
70122;SDS011;57489;37.404;24.920;2022-12-10T14:23:28;15.73;;;6.22;;
70122;SDS011;57489;37.404;24.920;2022-12-10T14:28:31;17.00;;;6.60;;
70122;SDS011;57489;37.404;24.920;2022-12-10T14:33:31;14.02;;;5.63;;
70122;SDS011;57489;37.404;24.920;2022-12-10T14:38:33;14.93;;;5.10;;
70122;SDS011;57489;37.404;24.920;2022-12-10T14:43:38;12.10;;;5.97;;
70122;SDS011;57489;37.404;24.920;2022-12-10T14:48:39;17.33;;;5.95;;
70122;SDS011;57489;37.404;24.920;2022-12-10T14:53:41;11.17;;;5.33;;
70122;SDS011;57489;37.404;24.920;2022-12-10T14:58:46;12.15;;;5.88;;
70122;SDS011;57489;37.404;24.920;2022-12-10T15:03:51;23.17;;;5.23;;
70122;SDS011;57489;37.404;24.920;2022-12-10T15:08:54;16.63;;;5.50;;
70122;SDS011;57489;37.404;24.920;2022-12-10T15:13:58;15.88;;;4.75;;
70122;SDS011;57489;37.404;24.920;2022-12-10T15:19:07;22.03;;;4.90;;
70122;SDS011;57489;37.404;24.920;2022-12-10T15:24:32;19.27;;;5.47;;
70122;SDS011;57489;37.404;24.920;2022-12-10T15:29:36;15.27;;;4.90;;
70122;SDS011;57489;37.404;24.920;2022-12-10T15:34:38;15.93;;;4.70;;
70122;SDS011;57489;37.404;24.920;2022-12-10T15:39:49;15.50;;;5.15;;
70122;SDS011;57489;37.404;24.920;2022-12-10T15:50:24;16.10;;;4.80;;
70122;SDS011;57489;37.404;24.920;2022-12-10T15:55:25;12.50;;;4.70;;
70122;SDS011;57489;37.404;24.920;2022-12-10T16:00:26;12.37;;;4.50;;
70122;SDS011;57489;37.404;24.920;2022-12-10T16:05:29;11.90;;;4.80;;
70122;SDS011;57489;37.404;24.920;2022-12-10T16:10:31;18.47;;;5.67;;
70122;SDS011;57489;37.404;24.920;2022-12-10T16:15:34;10.55;;;4.50;;
70122;SDS011;57489;37.404;24.920;2022-12-10T16:20:42;15.43;;;4.80;;
70122;SDS011;57489;37.404;24.920;2022-12-10T16:25:43;11.20;;;4.27;;
70122;SDS011;57489;37.404;24.920;2022-12-10T16:30:45;13.40;;;4.57;;
70122;SDS011;57489;37.404;24.920;2022-12-10T16:35:55;11.70;;;4.83;;
70122;SDS011;57489;37.404;24.920;2022-12-10T16:40:56;12.25;;;3.70;;
70122;SDS011;57489;37.404;24.920;2022-12-10T16:45:58;16.80;;;4.75;;
70122;SDS011;57489;37.404;24.920;2022-12-10T16:50:59;18.03;;;3.70;;
70122;SDS011;57489;37.404;24.920;2022-12-10T16:56:02;13.67;;;4.20;;
70122;SDS011;57489;37.404;24.920;2022-12-10T17:01:07;13.23;;;3.83;;
70122;SDS011;57489;37.404;24.920;2022-12-10T17:06:24;16.90;;;5.25;;
70122;SDS011;57489;37.404;24.920;2022-12-10T17:16:34;15.60;;;5.63;;
70122;SDS011;57489;37.404;24.920;2022-12-10T17:21:35;27.77;;;7.10;;
70122;SDS011;57489;37.404;24.920;2022-12-10T17:26:36;24.00;;;6.13;;
70122;SDS011;57489;37.404;24.920;2022-12-10T17:31:38;23.77;;;5.50;;
70122;SDS011;57489;37.404;24.920;2022-12-10T17:36:39;19.97;;;6.10;;
70122;SDS011;57489;37.404;24.920;2022-12-10T17:41:41;16.88;;;5.50;;
70122;SDS011;57489;37.404;24.920;2022-12-10T17:46:42;22.37;;;6.60;;
70122;SDS011;57489;37.404;24.920;2022-12-10T17:51:42;18.30;;;5.95;;
70122;SDS011;57489;37.404;24.920;2022-12-10T17:56:43;17.90;;;5.30;;
70122;SDS011;57489;37.404;24.920;2022-12-10T18:01:44;23.70;;;6.03;;
70122;SDS011;57489;37.404;24.920;2022-12-10T18:06:44;16.90;;;4.50;;
70122;SDS011;57489;37.404;24.920;2022-12-10T18:11:45;13.23;;;4.20;;
70122;SDS011;57489;37.404;24.920;2022-12-10T18:16:46;15.37;;;5.10;;
70122;SDS011;57489;37.404;24.920;2022-12-10T18:21:46;14.70;;;4.37;;
70122;SDS011;57489;37.404;24.920;2022-12-10T18:26:46;23.33;;;6.57;;
70122;SDS011;57489;37.404;24.920;2022-12-10T18:31:47;20.47;;;5.83;;
70122;SDS011;57489;37.404;24.920;2022-12-10T18:36:48;20.90;;;6.83;;
70122;SDS011;57489;37.404;24.920;2022-12-10T18:41:49;22.63;;;7.77;;
70122;SDS011;57489;37.404;24.920;2022-12-10T18:46:50;18.77;;;6.35;;
70122;SDS011;57489;37.404;24.920;2022-12-10T18:51:51;23.23;;;7.05;;
70122;SDS011;57489;37.404;24.920;2022-12-10T18:56:52;25.10;;;6.97;;
70122;SDS011;57489;37.404;24.920;2022-12-10T19:01:52;22.47;;;6.67;;
70122;SDS011;57489;37.404;24.920;2022-12-10T19:06:53;19.43;;;6.80;;
70122;SDS011;57489;37.404;24.920;2022-12-10T19:11:53;24.40;;;6.77;;
70122;SDS011;57489;37.404;24.920;2022-12-10T19:16:53;16.63;;;5.77;;
70122;SDS011;57489;37.404;24.920;2022-12-10T19:21:54;18.33;;;6.07;;
70122;SDS011;57489;37.404;24.920;2022-12-10T19:26:54;17.67;;;5.77;;
70122;SDS011;57489;37.404;24.920;2022-12-10T19:31:55;16.30;;;5.73;;
70122;SDS011;57489;37.404;24.920;2022-12-10T19:36:55;14.57;;;5.73;;
70122;SDS011;57489;37.404;24.920;2022-12-10T19:41:56;18.60;;;5.90;;
70122;SDS011;57489;37.404;24.920;2022-12-10T19:46:56;15.93;;;4.83;;
70122;SDS011;57489;37.404;24.920;2022-12-10T19:51:57;19.93;;;6.90;;
70122;SDS011;57489;37.404;24.920;2022-12-10T19:56:57;19.00;;;7.77;;
70122;SDS011;57489;37.404;24.920;2022-12-10T20:01:58;19.30;;;7.87;;
70122;SDS011;57489;37.404;24.920;2022-12-10T20:06:58;23.97;;;7.80;;
70122;SDS011;57489;37.404;24.920;2022-12-10T20:11:59;15.65;;;6.65;;
70122;SDS011;57489;37.404;24.920;2022-12-10T20:17:00;20.60;;;6.77;;
70122;SDS011;57489;37.404;24.920;2022-12-10T20:22:00;25.63;;;6.90;;
70122;SDS011;57489;37.404;24.920;2022-12-10T20:27:00;18.83;;;6.60;;
70122;SDS011;57489;37.404;24.920;2022-12-10T20:32:01;16.88;;;5.10;;
70122;SDS011;57489;37.404;24.920;2022-12-10T20:37:01;16.83;;;5.40;;
70122;SDS011;57489;37.404;24.920;2022-12-10T20:42:02;17.63;;;5.47;;
70122;SDS011;57489;37.404;24.920;2022-12-10T20:47:02;19.30;;;6.43;;
70122;SDS011;57489;37.404;24.920;2022-12-10T20:52:03;17.47;;;4.90;;
70122;SDS011;57489;37.404;24.920;2022-12-10T20:57:03;14.40;;;4.47;;
70122;SDS011;57489;37.404;24.920;2022-12-10T21:02:04;14.77;;;4.70;;
70122;SDS011;57489;37.404;24.920;2022-12-10T21:07:04;12.63;;;4.73;;
70122;SDS011;57489;37.404;24.920;2022-12-10T21:12:05;16.53;;;4.57;;
70122;SDS011;57489;37.404;24.920;2022-12-10T21:17:05;11.90;;;4.73;;
70122;SDS011;57489;37.404;24.920;2022-12-10T21:22:06;17.50;;;5.30;;
70122;SDS011;57489;37.404;24.920;2022-12-10T21:27:07;17.43;;;5.27;;
70122;SDS011;57489;37.404;24.920;2022-12-10T21:32:08;13.90;;;5.20;;
70122;SDS011;57489;37.404;24.920;2022-12-10T21:37:08;13.47;;;4.27;;
70122;SDS011;57489;37.404;24.920;2022-12-10T21:42:10;16.53;;;4.83;;
70122;SDS011;57489;37.404;24.920;2022-12-10T21:47:11;17.30;;;4.82;;
70122;SDS011;57489;37.404;24.920;2022-12-10T21:52:12;13.53;;;3.83;;
70122;SDS011;57489;37.404;24.920;2022-12-10T21:57:12;15.20;;;4.87;;
70122;SDS011;57489;37.404;24.920;2022-12-10T22:02:13;17.80;;;4.20;;
70122;SDS011;57489;37.404;24.920;2022-12-10T22:07:13;17.60;;;5.40;;
70122;SDS011;57489;37.404;24.920;2022-12-10T22:12:14;16.00;;;4.13;;
70122;SDS011;57489;37.404;24.920;2022-12-10T22:17:14;11.80;;;3.70;;
70122;SDS011;57489;37.404;24.920;2022-12-10T22:22:15;14.77;;;4.20;;
70122;SDS011;57489;37.404;24.920;2022-12-10T22:27:19;13.37;;;3.83;;
70122;SDS011;57489;37.404;24.920;2022-12-10T22:32:19;15.23;;;3.97;;
70122;SDS011;57489;37.404;24.920;2022-12-10T22:37:20;12.43;;;3.90;;
70122;SDS011;57489;37.404;24.920;2022-12-10T22:42:20;13.43;;;4.90;;
70122;SDS011;57489;37.404;24.920;2022-12-10T22:47:21;13.80;;;4.07;;
70122;SDS011;57489;37.404;24.920;2022-12-10T22:52:21;10.70;;;4.00;;
70122;SDS011;57489;37.404;24.920;2022-12-10T22:57:22;12.68;;;4.05;;
70122;SDS011;57489;37.404;24.920;2022-12-10T23:02:23;14.18;;;4.15;;
70122;SDS011;57489;37.404;24.920;2022-12-10T23:07:24;15.63;;;4.07;;
70122;SDS011;57489;37.404;24.920;2022-12-10T23:12:24;13.00;;;3.70;;
70122;SDS011;57489;37.404;24.920;2022-12-10T23:17:25;12.13;;;3.63;;
70122;SDS011;57489;37.404;24.920;2022-12-10T23:22:25;14.13;;;3.63;;
70122;SDS011;57489;37.404;24.920;2022-12-10T23:27:26;16.73;;;4.33;;
70122;SDS011;57489;37.404;24.920;2022-12-10T23:32:26;13.32;;;3.72;;
70122;SDS011;57489;37.404;24.920;2022-12-10T23:37:28;14.57;;;4.50;;
70122;SDS011;57489;37.404;24.920;2022-12-10T23:42:30;12.17;;;4.07;;
70122;SDS011;57489;37.404;24.920;2022-12-10T23:47:30;11.97;;;4.03;;
70122;SDS011;57489;37.404;24.920;2022-12-10T23:52:31;11.50;;;3.40;;
70122;SDS011;57489;37.404;24.920;2022-12-10T23:57:31;11.17;;;3.70;;
